sensor_id;sensor_type;location;lat;lon;timestamp;P1;durP1;ratioP1;P2;durP2;ratioP2
33814;SDS011;20121;51.910;8.406;2023-06-24T00:01:23;3.22;;;2.60;;
33814;SDS011;20121;51.910;8.406;2023-06-24T00:03:49;3.25;;;2.95;;
33814;SDS011;20121;51.910;8.406;2023-06-24T00:06:18;2.60;;;2.40;;
33814;SDS011;20121;51.910;8.406;2023-06-24T00:08:48;2.50;;;2.15;;
33814;SDS011;20121;51.910;8.406;2023-06-24T00:11:14;2.85;;;2.63;;
33814;SDS011;20121;51.910;8.406;2023-06-24T00:13:40;3.30;;;2.38;;
33814;SDS011;20121;51.910;8.406;2023-06-24T00:16:06;5.43;;;2.85;;
33814;SDS011;20121;51.910;8.406;2023-06-24T00:18:33;3.33;;;2.83;;
33814;SDS011;20121;51.910;8.406;2023-06-24T00:20:59;3.70;;;3.25;;
33814;SDS011;20121;51.910;8.406;2023-06-24T00:23:26;4.25;;;2.85;;
33814;SDS011;20121;51.910;8.406;2023-06-24T00:25:53;3.60;;;2.60;;
33814;SDS011;20121;51.910;8.406;2023-06-24T00:28:20;6.40;;;3.33;;
33814;SDS011;20121;51.910;8.406;2023-06-24T00:30:46;3.90;;;3.28;;
33814;SDS011;20121;51.910;8.406;2023-06-24T00:33:13;3.30;;;2.60;;
33814;SDS011;20121;51.910;8.406;2023-06-24T00:35:39;5.20;;;2.83;;
33814;SDS011;20121;51.910;8.406;2023-06-24T00:38:05;3.08;;;2.38;;
33814;SDS011;20121;51.910;8.406;2023-06-24T00:40:31;5.00;;;3.67;;
33814;SDS011;20121;51.910;8.406;2023-06-24T00:42:57;3.17;;;2.72;;
33814;SDS011;20121;51.910;8.406;2023-06-24T00:45:24;4.15;;;3.08;;
33814;SDS011;20121;51.910;8.406;2023-06-24T00:47:50;4.93;;;3.63;;
33814;SDS011;20121;51.910;8.406;2023-06-24T00:50:16;4.13;;;3.20;;
33814;SDS011;20121;51.910;8.406;2023-06-24T00:52:42;3.33;;;3.03;;
33814;SDS011;20121;51.910;8.406;2023-06-24T00:55:12;4.63;;;3.50;;
33814;SDS011;20121;51.910;8.406;2023-06-24T00:57:46;4.72;;;2.92;;
33814;SDS011;20121;51.910;8.406;2023-06-24T01:00:20;4.55;;;2.83;;
33814;SDS011;20121;51.910;8.406;2023-06-24T01:02:48;4.93;;;3.13;;
33814;SDS011;20121;51.910;8.406;2023-06-24T01:05:15;3.25;;;2.53;;
33814;SDS011;20121;51.910;8.406;2023-06-24T01:07:41;4.63;;;2.60;;
33814;SDS011;20121;51.910;8.406;2023-06-24T01:10:08;3.40;;;2.97;;
33814;SDS011;20121;51.910;8.406;2023-06-24T01:12:35;3.45;;;2.30;;
33814;SDS011;20121;51.910;8.406;2023-06-24T01:15:03;5.13;;;3.70;;
33814;SDS011;20121;51.910;8.406;2023-06-24T01:17:35;5.43;;;3.38;;
33814;SDS011;20121;51.910;8.406;2023-06-24T01:20:29;4.72;;;3.55;;
33814;SDS011;20121;51.910;8.406;2023-06-24T01:29:30;6.65;;;3.20;;
33814;SDS011;20121;51.910;8.406;2023-06-24T01:35:08;5.38;;;3.03;;
33814;SDS011;20121;51.910;8.406;2023-06-24T01:37:47;3.90;;;2.70;;
33814;SDS011;20121;51.910;8.406;2023-06-24T01:42:50;9.35;;;3.80;;
33814;SDS011;20121;51.910;8.406;2023-06-24T01:45:21;5.32;;;3.50;;
33814;SDS011;20121;51.910;8.406;2023-06-24T01:47:51;4.13;;;3.00;;
33814;SDS011;20121;51.910;8.406;2023-06-24T01:50:23;5.32;;;4.05;;
33814;SDS011;20121;51.910;8.406;2023-06-24T01:52:50;5.22;;;3.53;;
33814;SDS011;20121;51.910;8.406;2023-06-24T01:55:18;5.93;;;3.60;;
33814;SDS011;20121;51.910;8.406;2023-06-24T01:57:45;5.03;;;3.20;;
33814;SDS011;20121;51.910;8.406;2023-06-24T02:00:14;6.38;;;3.55;;
33814;SDS011;20121;51.910;8.406;2023-06-24T02:02:41;8.02;;;3.35;;
33814;SDS011;20121;51.910;8.406;2023-06-24T02:05:10;4.68;;;4.28;;
33814;SDS011;20121;51.910;8.406;2023-06-24T02:07:36;8.55;;;3.63;;
33814;SDS011;20121;51.910;8.406;2023-06-24T02:10:04;5.15;;;3.35;;
33814;SDS011;20121;51.910;8.406;2023-06-24T02:12:31;5.00;;;4.13;;
33814;SDS011;20121;51.910;8.406;2023-06-24T02:14:58;5.63;;;4.00;;
33814;SDS011;20121;51.910;8.406;2023-06-24T02:17:24;4.53;;;3.33;;
33814;SDS011;20121;51.910;8.406;2023-06-24T02:19:54;6.07;;;3.92;;
33814;SDS011;20121;51.910;8.406;2023-06-24T02:22:20;5.68;;;3.58;;
33814;SDS011;20121;51.910;8.406;2023-06-24T02:24:47;8.00;;;3.83;;
33814;SDS011;20121;51.910;8.406;2023-06-24T02:27:14;6.38;;;4.25;;
33814;SDS011;20121;51.910;8.406;2023-06-24T02:29:41;4.85;;;3.58;;
33814;SDS011;20121;51.910;8.406;2023-06-24T02:32:08;3.20;;;2.88;;
33814;SDS011;20121;51.910;8.406;2023-06-24T02:34:34;5.25;;;3.80;;
33814;SDS011;20121;51.910;8.406;2023-06-24T02:36:59;6.07;;;3.13;;
33814;SDS011;20121;51.910;8.406;2023-06-24T02:39:25;3.93;;;3.57;;
33814;SDS011;20121;51.910;8.406;2023-06-24T02:41:51;4.40;;;3.40;;
33814;SDS011;20121;51.910;8.406;2023-06-24T02:44:16;5.10;;;3.37;;
33814;SDS011;20121;51.910;8.406;2023-06-24T02:46:42;5.40;;;3.67;;
33814;SDS011;20121;51.910;8.406;2023-06-24T02:49:10;4.10;;;3.70;;
33814;SDS011;20121;51.910;8.406;2023-06-24T02:51:38;5.82;;;3.63;;
33814;SDS011;20121;51.910;8.406;2023-06-24T02:54:04;5.50;;;4.28;;
33814;SDS011;20121;51.910;8.406;2023-06-24T02:56:31;4.97;;;3.33;;
33814;SDS011;20121;51.910;8.406;2023-06-24T02:58:57;5.18;;;3.78;;
33814;SDS011;20121;51.910;8.406;2023-06-24T03:01:23;6.23;;;3.80;;
33814;SDS011;20121;51.910;8.406;2023-06-24T03:03:54;5.03;;;3.78;;
33814;SDS011;20121;51.910;8.406;2023-06-24T03:06:20;3.40;;;3.13;;
33814;SDS011;20121;51.910;8.406;2023-06-24T03:08:47;6.15;;;3.70;;
33814;SDS011;20121;51.910;8.406;2023-06-24T03:11:14;3.47;;;3.15;;
33814;SDS011;20121;51.910;8.406;2023-06-24T03:13:40;3.22;;;2.80;;
33814;SDS011;20121;51.910;8.406;2023-06-24T03:16:06;3.40;;;2.67;;
33814;SDS011;20121;51.910;8.406;2023-06-24T03:18:37;4.22;;;3.45;;
33814;SDS011;20121;51.910;8.406;2023-06-24T03:21:05;5.45;;;3.22;;
33814;SDS011;20121;51.910;8.406;2023-06-24T03:23:31;6.97;;;3.90;;
33814;SDS011;20121;51.910;8.406;2023-06-24T03:25:57;3.97;;;3.57;;
33814;SDS011;20121;51.910;8.406;2023-06-24T03:28:22;4.47;;;2.93;;
33814;SDS011;20121;51.910;8.406;2023-06-24T03:30:48;6.23;;;3.73;;
33814;SDS011;20121;51.910;8.406;2023-06-24T03:33:14;4.00;;;3.43;;
33814;SDS011;20121;51.910;8.406;2023-06-24T03:35:42;3.38;;;2.47;;
33814;SDS011;20121;51.910;8.406;2023-06-24T03:38:07;5.50;;;3.67;;
33814;SDS011;20121;51.910;8.406;2023-06-24T03:40:33;3.93;;;3.23;;
33814;SDS011;20121;51.910;8.406;2023-06-24T03:42:59;7.53;;;4.27;;
33814;SDS011;20121;51.910;8.406;2023-06-24T03:45:24;6.80;;;3.73;;
33814;SDS011;20121;51.910;8.406;2023-06-24T03:47:50;6.07;;;3.40;;
33814;SDS011;20121;51.910;8.406;2023-06-24T03:50:16;4.10;;;3.70;;
33814;SDS011;20121;51.910;8.406;2023-06-24T03:52:41;6.17;;;4.73;;
33814;SDS011;20121;51.910;8.406;2023-06-24T03:55:09;4.65;;;4.22;;
33814;SDS011;20121;51.910;8.406;2023-06-24T03:57:35;4.60;;;3.83;;
33814;SDS011;20121;51.910;8.406;2023-06-24T04:00:02;3.47;;;3.13;;
33814;SDS011;20121;51.910;8.406;2023-06-24T04:02:37;7.10;;;3.60;;
33814;SDS011;20121;51.910;8.406;2023-06-24T04:05:03;3.17;;;2.90;;
33814;SDS011;20121;51.910;8.406;2023-06-24T04:07:31;3.65;;;3.08;;
33814;SDS011;20121;51.910;8.406;2023-06-24T04:09:57;4.80;;;4.27;;
33814;SDS011;20121;51.910;8.406;2023-06-24T04:12:23;10.80;;;5.00;;
33814;SDS011;20121;51.910;8.406;2023-06-24T04:14:49;4.60;;;3.25;;
33814;SDS011;20121;51.910;8.406;2023-06-24T04:17:15;5.37;;;3.20;;
33814;SDS011;20121;51.910;8.406;2023-06-24T04:19:41;5.70;;;3.90;;
33814;SDS011;20121;51.910;8.406;2023-06-24T04:22:07;6.40;;;4.10;;
33814;SDS011;20121;51.910;8.406;2023-06-24T04:24:33;4.90;;;3.72;;
33814;SDS011;20121;51.910;8.406;2023-06-24T04:26:58;7.00;;;3.10;;
33814;SDS011;20121;51.910;8.406;2023-06-24T04:29:24;5.10;;;4.03;;
33814;SDS011;20121;51.910;8.406;2023-06-24T04:31:49;4.23;;;3.53;;
33814;SDS011;20121;51.910;8.406;2023-06-24T04:34:15;5.23;;;3.77;;
33814;SDS011;20121;51.910;8.406;2023-06-24T04:36:41;4.13;;;3.73;;
33814;SDS011;20121;51.910;8.406;2023-06-24T04:39:06;5.20;;;3.30;;
33814;SDS011;20121;51.910;8.406;2023-06-24T04:41:32;12.73;;;5.10;;
33814;SDS011;20121;51.910;8.406;2023-06-24T04:43:58;5.50;;;4.33;;
33814;SDS011;20121;51.910;8.406;2023-06-24T04:46:24;5.17;;;4.00;;
33814;SDS011;20121;51.910;8.406;2023-06-24T04:48:49;6.40;;;3.93;;
33814;SDS011;20121;51.910;8.406;2023-06-24T04:51:15;5.03;;;4.10;;
33814;SDS011;20121;51.910;8.406;2023-06-24T04:53:41;5.13;;;4.53;;
33814;SDS011;20121;51.910;8.406;2023-06-24T04:56:06;9.20;;;4.67;;
33814;SDS011;20121;51.910;8.406;2023-06-24T04:58:32;13.10;;;3.60;;
33814;SDS011;20121;51.910;8.406;2023-06-24T05:00:57;5.70;;;4.10;;
33814;SDS011;20121;51.910;8.406;2023-06-24T05:03:24;4.65;;;3.55;;
33814;SDS011;20121;51.910;8.406;2023-06-24T05:05:49;6.20;;;3.90;;
33814;SDS011;20121;51.910;8.406;2023-06-24T05:08:15;4.93;;;3.93;;
33814;SDS011;20121;51.910;8.406;2023-06-24T05:10:40;8.30;;;5.23;;
33814;SDS011;20121;51.910;8.406;2023-06-24T05:13:06;5.57;;;3.80;;
33814;SDS011;20121;51.910;8.406;2023-06-24T05:15:32;4.93;;;3.43;;
33814;SDS011;20121;51.910;8.406;2023-06-24T05:17:57;6.33;;;3.47;;
33814;SDS011;20121;51.910;8.406;2023-06-24T05:20:23;4.37;;;3.33;;
33814;SDS011;20121;51.910;8.406;2023-06-24T05:22:49;6.93;;;4.37;;
33814;SDS011;20121;51.910;8.406;2023-06-24T05:25:14;4.83;;;3.83;;
33814;SDS011;20121;51.910;8.406;2023-06-24T05:27:40;4.57;;;3.40;;
33814;SDS011;20121;51.910;8.406;2023-06-24T05:30:06;3.70;;;3.00;;
33814;SDS011;20121;51.910;8.406;2023-06-24T05:32:32;6.43;;;2.70;;
33814;SDS011;20121;51.910;8.406;2023-06-24T05:34:57;4.00;;;3.20;;
33814;SDS011;20121;51.910;8.406;2023-06-24T05:37:23;5.93;;;3.47;;
33814;SDS011;20121;51.910;8.406;2023-06-24T05:39:48;3.23;;;2.93;;
33814;SDS011;20121;51.910;8.406;2023-06-24T05:42:14;4.30;;;3.90;;
33814;SDS011;20121;51.910;8.406;2023-06-24T05:44:40;4.97;;;3.33;;
33814;SDS011;20121;51.910;8.406;2023-06-24T05:47:05;4.03;;;3.00;;
33814;SDS011;20121;51.910;8.406;2023-06-24T05:49:31;4.67;;;2.53;;
33814;SDS011;20121;51.910;8.406;2023-06-24T05:51:56;3.87;;;3.10;;
33814;SDS011;20121;51.910;8.406;2023-06-24T05:54:23;3.80;;;3.40;;
33814;SDS011;20121;51.910;8.406;2023-06-24T05:56:48;4.83;;;3.03;;
33814;SDS011;20121;51.910;8.406;2023-06-24T05:59:14;3.63;;;2.47;;
33814;SDS011;20121;51.910;8.406;2023-06-24T06:01:40;4.13;;;2.80;;
33814;SDS011;20121;51.910;8.406;2023-06-24T06:04:05;4.10;;;3.10;;
33814;SDS011;20121;51.910;8.406;2023-06-24T06:06:31;4.83;;;3.00;;
33814;SDS011;20121;51.910;8.406;2023-06-24T06:08:57;3.20;;;2.83;;
33814;SDS011;20121;51.910;8.406;2023-06-24T06:11:22;5.87;;;3.20;;
33814;SDS011;20121;51.910;8.406;2023-06-24T06:13:48;3.13;;;2.80;;
33814;SDS011;20121;51.910;8.406;2023-06-24T06:16:14;3.20;;;2.87;;
33814;SDS011;20121;51.910;8.406;2023-06-24T06:18:39;3.67;;;2.53;;
33814;SDS011;20121;51.910;8.406;2023-06-24T06:21:05;3.50;;;2.70;;
33814;SDS011;20121;51.910;8.406;2023-06-24T06:23:31;5.13;;;3.17;;
33814;SDS011;20121;51.910;8.406;2023-06-24T06:25:56;6.70;;;2.33;;
33814;SDS011;20121;51.910;8.406;2023-06-24T06:28:22;3.92;;;2.53;;
33814;SDS011;20121;51.910;8.406;2023-06-24T06:30:48;4.13;;;3.23;;
33814;SDS011;20121;51.910;8.406;2023-06-24T06:33:13;5.13;;;3.00;;
33814;SDS011;20121;51.910;8.406;2023-06-24T06:35:39;5.40;;;2.77;;
33814;SDS011;20121;51.910;8.406;2023-06-24T06:38:05;5.70;;;3.53;;
33814;SDS011;20121;51.910;8.406;2023-06-24T06:40:30;7.03;;;2.70;;
33814;SDS011;20121;51.910;8.406;2023-06-24T06:42:56;3.10;;;2.37;;
33814;SDS011;20121;51.910;8.406;2023-06-24T06:45:22;4.37;;;3.03;;
33814;SDS011;20121;51.910;8.406;2023-06-24T06:47:48;4.23;;;3.23;;
33814;SDS011;20121;51.910;8.406;2023-06-24T06:50:15;3.47;;;2.50;;
33814;SDS011;20121;51.910;8.406;2023-06-24T06:52:41;3.27;;;2.40;;
33814;SDS011;20121;51.910;8.406;2023-06-24T06:55:06;3.80;;;3.33;;
33814;SDS011;20121;51.910;8.406;2023-06-24T06:57:32;4.00;;;2.70;;
33814;SDS011;20121;51.910;8.406;2023-06-24T06:59:58;2.67;;;2.27;;
33814;SDS011;20121;51.910;8.406;2023-06-24T07:02:23;2.90;;;2.17;;
33814;SDS011;20121;51.910;8.406;2023-06-24T07:04:49;3.53;;;3.00;;
33814;SDS011;20121;51.910;8.406;2023-06-24T07:07:16;3.83;;;3.00;;
33814;SDS011;20121;51.910;8.406;2023-06-24T07:09:41;4.13;;;3.00;;
33814;SDS011;20121;51.910;8.406;2023-06-24T07:12:07;2.80;;;2.60;;
33814;SDS011;20121;51.910;8.406;2023-06-24T07:14:33;4.65;;;3.17;;
33814;SDS011;20121;51.910;8.406;2023-06-24T07:16:59;3.43;;;2.90;;
33814;SDS011;20121;51.910;8.406;2023-06-24T07:19:25;4.27;;;2.60;;
33814;SDS011;20121;51.910;8.406;2023-06-24T07:21:51;3.33;;;2.83;;
33814;SDS011;20121;51.910;8.406;2023-06-24T07:24:16;3.47;;;2.45;;
33814;SDS011;20121;51.910;8.406;2023-06-24T07:26:42;5.93;;;3.40;;
33814;SDS011;20121;51.910;8.406;2023-06-24T07:29:08;2.90;;;2.10;;
33814;SDS011;20121;51.910;8.406;2023-06-24T07:31:34;3.73;;;2.20;;
33814;SDS011;20121;51.910;8.406;2023-06-24T07:34:01;2.95;;;2.00;;
33814;SDS011;20121;51.910;8.406;2023-06-24T07:36:27;4.00;;;2.90;;
33814;SDS011;20121;51.910;8.406;2023-06-24T07:38:53;2.78;;;2.38;;
33814;SDS011;20121;51.910;8.406;2023-06-24T07:41:19;2.43;;;2.23;;
33814;SDS011;20121;51.910;8.406;2023-06-24T07:43:44;4.90;;;2.23;;
33814;SDS011;20121;51.910;8.406;2023-06-24T07:46:10;3.57;;;1.90;;
33814;SDS011;20121;51.910;8.406;2023-06-24T07:48:35;5.83;;;2.60;;
33814;SDS011;20121;51.910;8.406;2023-06-24T07:51:01;2.80;;;2.03;;
33814;SDS011;20121;51.910;8.406;2023-06-24T07:53:27;6.53;;;2.33;;
33814;SDS011;20121;51.910;8.406;2023-06-24T07:55:52;2.50;;;2.23;;
33814;SDS011;20121;51.910;8.406;2023-06-24T07:58:18;2.37;;;2.10;;
33814;SDS011;20121;51.910;8.406;2023-06-24T08:00:46;3.90;;;2.35;;
33814;SDS011;20121;51.910;8.406;2023-06-24T08:03:12;4.27;;;2.37;;
33814;SDS011;20121;51.910;8.406;2023-06-24T08:05:39;4.90;;;2.45;;
33814;SDS011;20121;51.910;8.406;2023-06-24T08:08:05;2.70;;;2.50;;
33814;SDS011;20121;51.910;8.406;2023-06-24T08:10:31;2.45;;;2.25;;
33814;SDS011;20121;51.910;8.406;2023-06-24T08:12:57;2.80;;;2.13;;
33814;SDS011;20121;51.910;8.406;2023-06-24T08:15:23;2.60;;;2.40;;
33814;SDS011;20121;51.910;8.406;2023-06-24T08:17:52;2.70;;;2.40;;
33814;SDS011;20121;51.910;8.406;2023-06-24T08:20:19;1.98;;;1.80;;
33814;SDS011;20121;51.910;8.406;2023-06-24T08:22:45;3.95;;;2.50;;
33814;SDS011;20121;51.910;8.406;2023-06-24T08:25:11;5.90;;;2.87;;
33814;SDS011;20121;51.910;8.406;2023-06-24T08:27:36;3.67;;;1.77;;
33814;SDS011;20121;51.910;8.406;2023-06-24T08:30:03;2.53;;;2.20;;
33814;SDS011;20121;51.910;8.406;2023-06-24T08:32:30;2.92;;;2.30;;
33814;SDS011;20121;51.910;8.406;2023-06-24T08:34:56;3.00;;;2.13;;
33814;SDS011;20121;51.910;8.406;2023-06-24T08:37:21;2.37;;;2.17;;
33814;SDS011;20121;51.910;8.406;2023-06-24T08:39:47;2.80;;;2.40;;
33814;SDS011;20121;51.910;8.406;2023-06-24T08:42:13;2.50;;;2.30;;
33814;SDS011;20121;51.910;8.406;2023-06-24T08:44:38;2.90;;;2.17;;
33814;SDS011;20121;51.910;8.406;2023-06-24T08:47:04;2.87;;;2.40;;
33814;SDS011;20121;51.910;8.406;2023-06-24T08:49:30;3.30;;;2.20;;
33814;SDS011;20121;51.910;8.406;2023-06-24T08:52:02;4.10;;;2.27;;
33814;SDS011;20121;51.910;8.406;2023-06-24T08:54:34;2.13;;;1.95;;
33814;SDS011;20121;51.910;8.406;2023-06-24T08:57:01;2.78;;;2.58;;
33814;SDS011;20121;51.910;8.406;2023-06-24T08:59:31;2.60;;;2.40;;
33814;SDS011;20121;51.910;8.406;2023-06-24T09:01:58;3.53;;;3.10;;
33814;SDS011;20121;51.910;8.406;2023-06-24T09:04:24;5.00;;;3.00;;
33814;SDS011;20121;51.910;8.406;2023-06-24T09:06:49;2.30;;;2.00;;
33814;SDS011;20121;51.910;8.406;2023-06-24T09:09:21;7.23;;;2.57;;
33814;SDS011;20121;51.910;8.406;2023-06-24T09:11:55;2.90;;;2.50;;
33814;SDS011;20121;51.910;8.406;2023-06-24T09:14:25;3.58;;;2.30;;
33814;SDS011;20121;51.910;8.406;2023-06-24T09:16:59;3.72;;;2.78;;
33814;SDS011;20121;51.910;8.406;2023-06-24T09:19:31;2.45;;;2.25;;
33814;SDS011;20121;51.910;8.406;2023-06-24T09:22:02;2.47;;;2.35;;
33814;SDS011;20121;51.910;8.406;2023-06-24T09:24:35;2.97;;;2.60;;
33814;SDS011;20121;51.910;8.406;2023-06-24T09:27:02;4.40;;;2.67;;
33814;SDS011;20121;51.910;8.406;2023-06-24T09:29:31;2.97;;;2.20;;
33814;SDS011;20121;51.910;8.406;2023-06-24T09:31:58;4.37;;;2.93;;
33814;SDS011;20121;51.910;8.406;2023-06-24T09:34:28;4.70;;;2.97;;
33814;SDS011;20121;51.910;8.406;2023-06-24T09:36:54;2.60;;;2.37;;
33814;SDS011;20121;51.910;8.406;2023-06-24T09:39:21;3.30;;;2.63;;
33814;SDS011;20121;51.910;8.406;2023-06-24T09:41:53;2.10;;;1.87;;
33814;SDS011;20121;51.910;8.406;2023-06-24T09:44:19;2.50;;;2.30;;
33814;SDS011;20121;51.910;8.406;2023-06-24T09:46:45;3.73;;;3.17;;
33814;SDS011;20121;51.910;8.406;2023-06-24T09:49:11;3.10;;;2.40;;
33814;SDS011;20121;51.910;8.406;2023-06-24T09:51:42;2.50;;;2.30;;
33814;SDS011;20121;51.910;8.406;2023-06-24T09:54:10;2.90;;;2.67;;
33814;SDS011;20121;51.910;8.406;2023-06-24T09:56:38;3.10;;;2.73;;
33814;SDS011;20121;51.910;8.406;2023-06-24T09:59:08;9.07;;;3.23;;
33814;SDS011;20121;51.910;8.406;2023-06-24T10:01:35;7.63;;;3.67;;
33814;SDS011;20121;51.910;8.406;2023-06-24T10:04:04;5.13;;;3.00;;
33814;SDS011;20121;51.910;8.406;2023-06-24T10:06:31;8.00;;;3.60;;
33814;SDS011;20121;51.910;8.406;2023-06-24T10:08:58;4.57;;;3.37;;
33814;SDS011;20121;51.910;8.406;2023-06-24T10:11:25;5.90;;;3.00;;
33814;SDS011;20121;51.910;8.406;2023-06-24T10:13:51;2.40;;;2.20;;
33814;SDS011;20121;51.910;8.406;2023-06-24T10:16:17;3.27;;;2.73;;
33814;SDS011;20121;51.910;8.406;2023-06-24T10:18:43;2.80;;;2.50;;
33814;SDS011;20121;51.910;8.406;2023-06-24T10:21:10;3.17;;;2.87;;
33814;SDS011;20121;51.910;8.406;2023-06-24T10:23:50;3.63;;;2.53;;
33814;SDS011;20121;51.910;8.406;2023-06-24T10:26:27;2.80;;;2.60;;
33814;SDS011;20121;51.910;8.406;2023-06-24T10:34:26;4.53;;;2.30;;
33814;SDS011;20121;51.910;8.406;2023-06-24T10:37:03;2.87;;;2.57;;
33814;SDS011;20121;51.910;8.406;2023-06-24T10:40:02;2.23;;;2.13;;
33814;SDS011;20121;51.910;8.406;2023-06-24T10:45:01;2.90;;;2.27;;
33814;SDS011;20121;51.910;8.406;2023-06-24T10:50:05;3.20;;;2.87;;
33814;SDS011;20121;51.910;8.406;2023-06-24T10:52:35;3.03;;;2.70;;
33814;SDS011;20121;51.910;8.406;2023-06-24T10:55:03;4.40;;;3.33;;
33814;SDS011;20121;51.910;8.406;2023-06-24T10:57:29;2.60;;;2.40;;
33814;SDS011;20121;51.910;8.406;2023-06-24T10:59:55;3.53;;;2.87;;
33814;SDS011;20121;51.910;8.406;2023-06-24T11:02:23;2.00;;;1.90;;
33814;SDS011;20121;51.910;8.406;2023-06-24T11:04:51;2.67;;;2.40;;
33814;SDS011;20121;51.910;8.406;2023-06-24T11:07:22;2.30;;;2.10;;
33814;SDS011;20121;51.910;8.406;2023-06-24T11:09:52;2.57;;;2.07;;
33814;SDS011;20121;51.910;8.406;2023-06-24T11:12:24;2.83;;;2.50;;
33814;SDS011;20121;51.910;8.406;2023-06-24T11:14:51;6.37;;;2.40;;
33814;SDS011;20121;51.910;8.406;2023-06-24T11:17:20;3.03;;;2.73;;
33814;SDS011;20121;51.910;8.406;2023-06-24T11:19:46;3.03;;;2.80;;
33814;SDS011;20121;51.910;8.406;2023-06-24T11:22:11;2.90;;;2.43;;
33814;SDS011;20121;51.910;8.406;2023-06-24T11:24:37;3.37;;;2.57;;
33814;SDS011;20121;51.910;8.406;2023-06-24T11:27:04;2.00;;;1.90;;
33814;SDS011;20121;51.910;8.406;2023-06-24T11:29:31;2.50;;;2.23;;
33814;SDS011;20121;51.910;8.406;2023-06-24T11:31:57;4.07;;;3.10;;
33814;SDS011;20121;51.910;8.406;2023-06-24T11:34:23;2.37;;;2.17;;
33814;SDS011;20121;51.910;8.406;2023-06-24T11:36:49;2.67;;;2.47;;
33814;SDS011;20121;51.910;8.406;2023-06-24T11:39:22;3.80;;;2.70;;
33814;SDS011;20121;51.910;8.406;2023-06-24T11:41:51;2.87;;;2.50;;
33814;SDS011;20121;51.910;8.406;2023-06-24T11:44:20;3.30;;;3.00;;
33814;SDS011;20121;51.910;8.406;2023-06-24T11:46:48;2.27;;;2.07;;
33814;SDS011;20121;51.910;8.406;2023-06-24T11:49:14;2.63;;;2.20;;
33814;SDS011;20121;51.910;8.406;2023-06-24T11:51:46;5.60;;;2.50;;
33814;SDS011;20121;51.910;8.406;2023-06-24T11:54:16;2.17;;;1.87;;
33814;SDS011;20121;51.910;8.406;2023-06-24T11:56:44;10.63;;;2.70;;
33814;SDS011;20121;51.910;8.406;2023-06-24T11:59:18;3.27;;;2.60;;
33814;SDS011;20121;51.910;8.406;2023-06-24T12:01:55;3.03;;;2.73;;
33814;SDS011;20121;51.910;8.406;2023-06-24T12:04:29;4.20;;;2.93;;
33814;SDS011;20121;51.910;8.406;2023-06-24T12:06:56;2.70;;;2.50;;
33814;SDS011;20121;51.910;8.406;2023-06-24T12:09:22;2.83;;;2.60;;
33814;SDS011;20121;51.910;8.406;2023-06-24T12:11:48;3.30;;;3.00;;
33814;SDS011;20121;51.910;8.406;2023-06-24T12:14:13;4.30;;;2.73;;
33814;SDS011;20121;51.910;8.406;2023-06-24T12:16:39;2.53;;;2.33;;
33814;SDS011;20121;51.910;8.406;2023-06-24T12:19:05;3.27;;;2.60;;
33814;SDS011;20121;51.910;8.406;2023-06-24T12:21:32;4.60;;;2.40;;
33814;SDS011;20121;51.910;8.406;2023-06-24T12:23:57;3.17;;;2.97;;
33814;SDS011;20121;51.910;8.406;2023-06-24T12:26:23;2.20;;;2.00;;
33814;SDS011;20121;51.910;8.406;2023-06-24T12:28:49;8.03;;;2.30;;
33814;SDS011;20121;51.910;8.406;2023-06-24T12:31:15;2.27;;;2.07;;
33814;SDS011;20121;51.910;8.406;2023-06-24T12:33:40;3.97;;;3.57;;
33814;SDS011;20121;51.910;8.406;2023-06-24T12:36:06;2.80;;;2.60;;
33814;SDS011;20121;51.910;8.406;2023-06-24T12:38:32;3.10;;;2.90;;
33814;SDS011;20121;51.910;8.406;2023-06-24T12:40:57;3.37;;;3.07;;
33814;SDS011;20121;51.910;8.406;2023-06-24T12:43:23;2.57;;;2.27;;
33814;SDS011;20121;51.910;8.406;2023-06-24T12:45:49;2.30;;;2.20;;
33814;SDS011;20121;51.910;8.406;2023-06-24T12:48:16;4.03;;;2.50;;
33814;SDS011;20121;51.910;8.406;2023-06-24T12:50:41;7.00;;;3.10;;
33814;SDS011;20121;51.910;8.406;2023-06-24T12:53:08;2.83;;;2.60;;
33814;SDS011;20121;51.910;8.406;2023-06-24T12:55:38;2.73;;;2.40;;
33814;SDS011;20121;51.910;8.406;2023-06-24T12:58:03;2.97;;;2.77;;
33814;SDS011;20121;51.910;8.406;2023-06-24T13:00:29;2.87;;;2.43;;
33814;SDS011;20121;51.910;8.406;2023-06-24T13:02:54;2.53;;;2.20;;
33814;SDS011;20121;51.910;8.406;2023-06-24T13:05:20;3.83;;;2.60;;
33814;SDS011;20121;51.910;8.406;2023-06-24T13:07:46;2.90;;;2.57;;
33814;SDS011;20121;51.910;8.406;2023-06-24T13:10:11;2.93;;;2.70;;
33814;SDS011;20121;51.910;8.406;2023-06-24T13:12:37;3.67;;;3.20;;
33814;SDS011;20121;51.910;8.406;2023-06-24T13:15:03;3.90;;;2.80;;
33814;SDS011;20121;51.910;8.406;2023-06-24T13:17:30;3.23;;;2.97;;
33814;SDS011;20121;51.910;8.406;2023-06-24T13:19:56;3.20;;;2.90;;
33814;SDS011;20121;51.910;8.406;2023-06-24T13:22:22;3.50;;;2.97;;
33814;SDS011;20121;51.910;8.406;2023-06-24T13:24:48;3.23;;;3.00;;
33814;SDS011;20121;51.910;8.406;2023-06-24T13:27:13;3.00;;;2.47;;
33814;SDS011;20121;51.910;8.406;2023-06-24T13:29:39;3.40;;;3.10;;
33814;SDS011;20121;51.910;8.406;2023-06-24T13:32:05;3.00;;;2.80;;
33814;SDS011;20121;51.910;8.406;2023-06-24T13:34:31;4.93;;;3.20;;
33814;SDS011;20121;51.910;8.406;2023-06-24T13:36:56;4.93;;;3.30;;
33814;SDS011;20121;51.910;8.406;2023-06-24T13:39:22;3.00;;;2.80;;
33814;SDS011;20121;51.910;8.406;2023-06-24T13:41:48;4.20;;;2.83;;
33814;SDS011;20121;51.910;8.406;2023-06-24T13:44:15;3.87;;;2.70;;
33814;SDS011;20121;51.910;8.406;2023-06-24T13:46:41;3.07;;;2.87;;
33814;SDS011;20121;51.910;8.406;2023-06-24T13:49:07;3.20;;;2.90;;
33814;SDS011;20121;51.910;8.406;2023-06-24T13:51:33;3.07;;;2.87;;
33814;SDS011;20121;51.910;8.406;2023-06-24T13:53:59;2.47;;;2.27;;
33814;SDS011;20121;51.910;8.406;2023-06-24T13:56:25;3.70;;;2.50;;
33814;SDS011;20121;51.910;8.406;2023-06-24T13:58:52;3.70;;;2.60;;
33814;SDS011;20121;51.910;8.406;2023-06-24T14:01:19;3.20;;;3.00;;
33814;SDS011;20121;51.910;8.406;2023-06-24T14:03:45;5.33;;;3.60;;
33814;SDS011;20121;51.910;8.406;2023-06-24T14:06:13;3.53;;;3.20;;
33814;SDS011;20121;51.910;8.406;2023-06-24T14:08:40;3.90;;;3.30;;
33814;SDS011;20121;51.910;8.406;2023-06-24T14:11:06;3.10;;;2.80;;
33814;SDS011;20121;51.910;8.406;2023-06-24T14:13:32;3.00;;;2.80;;
33814;SDS011;20121;51.910;8.406;2023-06-24T14:15:57;3.33;;;2.80;;
33814;SDS011;20121;51.910;8.406;2023-06-24T14:18:23;4.43;;;2.57;;
33814;SDS011;20121;51.910;8.406;2023-06-24T14:20:50;3.03;;;2.73;;
33814;SDS011;20121;51.910;8.406;2023-06-24T14:23:16;3.10;;;2.60;;
33814;SDS011;20121;51.910;8.406;2023-06-24T14:25:41;3.40;;;3.10;;
33814;SDS011;20121;51.910;8.406;2023-06-24T14:28:07;3.37;;;2.60;;
33814;SDS011;20121;51.910;8.406;2023-06-24T14:30:33;3.87;;;3.07;;
33814;SDS011;20121;51.910;8.406;2023-06-24T14:32:59;2.90;;;2.70;;
33814;SDS011;20121;51.910;8.406;2023-06-24T14:35:25;4.33;;;2.80;;
33814;SDS011;20121;51.910;8.406;2023-06-24T14:37:51;3.43;;;3.13;;
33814;SDS011;20121;51.910;8.406;2023-06-24T14:40:17;2.67;;;2.40;;
33814;SDS011;20121;51.910;8.406;2023-06-24T14:42:42;3.23;;;2.97;;
33814;SDS011;20121;51.910;8.406;2023-06-24T14:45:08;2.97;;;2.10;;
33814;SDS011;20121;51.910;8.406;2023-06-24T14:47:34;3.33;;;3.03;;
33814;SDS011;20121;51.910;8.406;2023-06-24T14:50:00;4.30;;;3.53;;
33814;SDS011;20121;51.910;8.406;2023-06-24T14:52:26;2.63;;;2.40;;
33814;SDS011;20121;51.910;8.406;2023-06-24T14:54:51;3.70;;;3.40;;
33814;SDS011;20121;51.910;8.406;2023-06-24T14:57:17;3.57;;;3.27;;
33814;SDS011;20121;51.910;8.406;2023-06-24T14:59:42;4.97;;;4.10;;
33814;SDS011;20121;51.910;8.406;2023-06-24T15:02:08;5.67;;;3.83;;
33814;SDS011;20121;51.910;8.406;2023-06-24T15:04:37;4.43;;;4.03;;
33814;SDS011;20121;51.910;8.406;2023-06-24T15:07:03;3.60;;;3.30;;
33814;SDS011;20121;51.910;8.406;2023-06-24T15:09:29;4.83;;;4.40;;